createdAt,value
2018-08-13T00:03:16.081Z,1002.10
2018-08-13T00:08:12.293Z,1002.01
2018-08-13T00:13:09.140Z,1001.90
2018-08-13T00:18:04.675Z,1001.83
2018-08-13T00:23:00.696Z,1001.90
2018-08-13T00:27:56.390Z,1001.84
2018-08-13T00:32:53.337Z,1001.78
2018-08-13T00:37:48.933Z,1001.80
2018-08-13T00:42:45.720Z,1001.75
2018-08-13T00:47:41.353Z,1001.72
2018-08-13T00:52:37.060Z,1001.49
2018-08-13T00:57:32.864Z,1001.54
2018-08-13T01:02:28.714Z,1001.55
2018-08-13T01:07:24.575Z,1001.48
2018-08-13T01:12:21.300Z,1001.49
2018-08-13T01:17:16.657Z,1001.40
2018-08-13T01:22:12.833Z,1001.41
2018-08-13T01:27:09.079Z,1001.40
2018-08-13T01:32:06.029Z,1001.36
2018-08-13T01:37:01.702Z,1001.27
2018-08-13T01:41:57.507Z,1001.14
2018-08-13T01:46:53.504Z,1001.20
2018-08-13T01:51:50.488Z,1001.20
2018-08-13T01:56:46.154Z,1001.10
2018-08-13T02:01:42.399Z,1001.05
2018-08-13T02:06:38.334Z,1000.80
2018-08-13T02:11:34.306Z,1000.73
2018-08-13T02:16:30.192Z,1000.70
2018-08-13T02:21:26.003Z,1000.68
2018-08-13T02:26:21.847Z,1000.61
2018-08-13T02:31:17.740Z,1000.60
2018-08-13T02:36:13.376Z,1000.67
2018-08-13T02:41:09.432Z,1000.67
2018-08-13T02:46:06.369Z,1000.81
2018-08-13T02:51:02.282Z,1000.83
2018-08-13T02:55:57.978Z,1000.81
2018-08-13T03:00:54.178Z,1000.88
2018-08-13T03:05:50.269Z,1000.80
2018-08-13T03:10:47.302Z,1000.64
2018-08-13T03:15:42.812Z,1000.49
2018-08-13T03:20:40.149Z,1000.41
2018-08-13T03:25:36.471Z,1000.44
2018-08-13T03:30:33.670Z,1000.28
2018-08-13T03:35:29.408Z,1000.31
2018-08-13T03:40:26.107Z,1000.19
2018-08-13T03:45:21.745Z,1000.24
2018-08-13T03:50:17.549Z,1000.01
2018-08-13T03:55:14.732Z,999.93
2018-08-13T04:00:10.289Z,999.78
2018-08-13T04:05:06.573Z,999.74
2018-08-13T04:10:03.525Z,999.77
2018-08-13T04:14:59.355Z,999.90
2018-08-13T04:19:55.099Z,999.82
2018-08-13T04:24:50.993Z,999.84
2018-08-13T04:29:46.849Z,999.76
2018-08-13T04:34:43.081Z,999.82
2018-08-13T04:39:39.156Z,999.84
2018-08-13T04:44:35.499Z,999.79
2018-08-13T04:49:31.398Z,999.67
2018-08-13T04:54:28.306Z,999.71
2018-08-13T04:59:23.897Z,999.69
2018-08-13T05:04:21.294Z,999.69
2018-08-13T05:09:16.623Z,999.60
2018-08-13T05:14:13.427Z,999.64
2018-08-13T05:19:10.015Z,1000.09
2018-08-13T05:24:05.710Z,1000.15
2018-08-13T05:29:01.780Z,1000.09
2018-08-13T05:33:57.811Z,1000.09
2018-08-13T05:38:54.908Z,1000.17
2018-08-13T05:43:50.558Z,1000.25
2018-08-13T05:48:46.230Z,1000.22
2018-08-13T05:53:42.543Z,1000.23
2018-08-13T05:58:39.430Z,1000.21
2018-08-13T06:03:35.046Z,1000.17
2018-08-13T06:08:31.125Z,999.99
2018-08-13T06:13:28.101Z,1000.03
2018-08-13T06:18:24.925Z,1000.11
2018-08-13T06:23:21.536Z,1000.18
2018-08-13T06:28:17.576Z,1000.13
2018-08-13T06:33:15.143Z,1000.18
2018-08-13T06:38:10.960Z,1000.24
2018-08-13T06:43:08.017Z,1000.21
2018-08-13T06:48:04.768Z,1000.37
2018-08-13T06:53:00.363Z,1000.32
2018-08-13T06:57:57.964Z,1000.34
2018-08-13T07:02:54.584Z,1000.40
2018-08-13T07:07:50.073Z,1000.46
2018-08-13T07:12:46.446Z,1000.46
2018-08-13T07:17:42.641Z,1000.43
2018-08-13T07:22:39.763Z,1000.49
2018-08-13T07:27:36.035Z,1000.43
2018-08-13T07:32:31.530Z,1000.32
2018-08-13T07:37:27.347Z,1000.25
2018-08-13T07:42:23.083Z,1000.14
2018-08-13T07:47:18.939Z,999.87
2018-08-13T07:52:15.010Z,999.88
2018-08-13T07:57:10.915Z,999.70
2018-08-13T08:02:07.410Z,1000.05
2018-08-13T08:07:04.695Z,999.99
2018-08-13T08:12:02.140Z,1000.02
2018-08-13T08:16:59.263Z,1000.30
2018-08-13T08:21:55.417Z,1000.26
2018-08-13T08:26:52.766Z,1000.34
2018-08-13T08:31:48.304Z,1000.36
2018-08-13T08:36:44.262Z,1000.45
2018-08-13T08:41:40.910Z,1000.44
2018-08-13T08:46:36.312Z,1000.53
2018-08-13T08:51:32.192Z,1000.61
2018-08-13T08:56:28.105Z,1000.72
2018-08-13T09:01:24.291Z,1000.77
2018-08-13T09:06:20.755Z,1000.78
2018-08-13T09:11:16.348Z,1000.84
2018-08-13T09:16:13.259Z,1000.85
2018-08-13T09:21:08.811Z,1000.77
2018-08-13T09:26:04.678Z,1000.83
2018-08-13T09:31:00.517Z,1000.78
2018-08-13T09:35:56.349Z,1000.81
2018-08-13T09:40:52.681Z,1000.81
2018-08-13T09:45:48.648Z,1000.82
2018-08-13T09:50:44.541Z,1000.67
2018-08-13T09:55:41.585Z,1000.71
2018-08-13T10:00:37.519Z,1000.62
2018-08-13T10:05:34.108Z,1000.76
2018-08-13T10:10:32.346Z,1000.68
2018-08-13T10:15:29.324Z,1000.58
2018-08-13T10:20:26.771Z,1000.71
2018-08-13T10:25:24.678Z,1000.56
2018-08-13T10:30:22.718Z,1000.21
2018-08-13T10:35:18.043Z,1000.17
2018-08-13T10:40:13.476Z,1000.51
2018-08-13T10:45:11.051Z,1000.41
2018-08-13T10:50:08.322Z,1000.35
2018-08-13T10:55:04.008Z,999.96
2018-08-13T10:59:57.679Z,999.92
2018-08-13T11:04:53.962Z,999.84
2018-08-13T11:09:50.688Z,999.92
2018-08-13T11:14:46.814Z,999.98
2018-08-13T11:19:45.372Z,999.81
2018-08-13T11:24:42.359Z,999.79
2018-08-13T11:29:36.436Z,999.76
2018-08-13T11:34:32.422Z,999.81
2018-08-13T11:39:27.717Z,999.73
2018-08-13T11:44:23.693Z,999.80
2018-08-13T11:49:20.423Z,999.84
2018-08-13T11:54:18.022Z,999.85
2018-08-13T11:59:13.712Z,999.73
2018-08-13T12:04:09.230Z,999.81
2018-08-13T12:09:09.829Z,999.70
2018-08-13T12:14:04.896Z,999.62
2018-08-13T12:18:59.903Z,999.58
2018-08-13T12:23:54.745Z,999.60
2018-08-13T12:28:49.928Z,999.49
2018-08-13T12:33:45.920Z,999.37
2018-08-13T12:38:41.050Z,999.29
2018-08-13T12:43:36.596Z,999.36
2018-08-13T12:48:32.506Z,999.32
2018-08-13T12:53:28.527Z,999.24
2018-08-13T12:58:25.331Z,999.24
2018-08-13T13:03:20.922Z,999.09
2018-08-13T13:08:17.180Z,999.06
2018-08-13T13:13:14.230Z,999.13
2018-08-13T13:18:09.865Z,999.02
2018-08-13T13:23:04.966Z,999.13
2018-08-13T13:28:00.428Z,999.17
2018-08-13T13:32:57.484Z,999.25
2018-08-13T13:37:53.205Z,999.04
2018-08-13T13:42:49.001Z,998.83
2018-08-13T13:47:44.686Z,998.84
2018-08-13T13:52:40.421Z,999.12
2018-08-13T13:57:36.275Z,999.06
2018-08-13T14:02:31.855Z,999.06
2018-08-13T14:07:27.689Z,999.29
2018-08-13T14:12:23.347Z,999.36
2018-08-13T14:17:19.328Z,999.49
2018-08-13T14:22:14.921Z,999.71
2018-08-13T14:27:10.672Z,1000.01
2018-08-13T14:32:07.017Z,1000.02
2018-08-13T14:37:03.308Z,999.92
2018-08-13T14:41:58.693Z,999.98
2018-08-13T14:46:55.509Z,1000.00
2018-08-13T14:51:51.302Z,999.58
2018-08-13T14:56:48.521Z,999.51
2018-08-13T15:01:44.322Z,999.57
2018-08-13T15:06:40.451Z,999.59
2018-08-13T15:11:37.671Z,999.50
2018-08-13T15:16:33.527Z,999.52
2018-08-13T15:21:30.486Z,999.68
2018-08-13T15:26:26.282Z,999.73
2018-08-13T15:31:22.909Z,999.70
2018-08-13T15:36:18.487Z,999.47
2018-08-13T15:41:15.406Z,999.80
2018-08-13T15:46:12.000Z,999.82
2018-08-13T15:51:08.025Z,999.82
2018-08-13T15:56:03.882Z,999.85
2018-08-13T16:01:00.396Z,999.88
2018-08-13T16:05:56.598Z,999.78
2018-08-13T16:10:52.486Z,999.74
2018-08-13T16:15:48.579Z,999.71
2018-08-13T16:20:44.512Z,999.73
2018-08-13T16:25:41.109Z,999.94
2018-08-13T16:30:36.597Z,999.95
2018-08-13T16:35:33.303Z,999.83
2018-08-13T16:40:28.456Z,999.83
2018-08-13T16:45:25.561Z,999.87
2018-08-13T16:50:21.453Z,999.77
2018-08-13T16:55:16.883Z,999.87
2018-08-13T17:00:12.740Z,999.67
2018-08-13T17:05:09.710Z,999.71
2018-08-13T17:10:05.187Z,999.74
2018-08-13T17:15:00.869Z,999.74
2018-08-13T17:19:57.785Z,999.55
2018-08-13T17:24:53.249Z,999.89
2018-08-13T17:29:49.995Z,999.89
2018-08-13T17:34:46.162Z,999.92
2018-08-13T17:39:42.897Z,1000.02
2018-08-13T17:44:39.336Z,999.87
2018-08-13T17:49:35.311Z,999.91
2018-08-13T17:54:30.977Z,999.91
2018-08-13T17:59:26.604Z,1000.03
2018-08-13T18:04:22.483Z,999.91
2018-08-13T18:09:18.642Z,999.95
2018-08-13T18:14:14.275Z,1000.00
2018-08-13T18:19:10.360Z,1000.00
2018-08-13T18:24:07.757Z,1000.10
2018-08-13T18:29:03.316Z,1000.17
2018-08-13T18:33:59.200Z,1000.27
2018-08-13T18:38:55.060Z,1000.33
2018-08-13T18:43:51.834Z,1000.29
2018-08-13T18:48:47.262Z,1000.31
2018-08-13T18:53:43.230Z,1000.45
2018-08-13T18:58:39.043Z,1000.44
2018-08-13T19:03:36.337Z,1000.57
2018-08-13T19:08:31.904Z,1000.68
2018-08-13T19:13:27.778Z,1000.82
2018-08-13T19:18:24.640Z,1000.88
2018-08-13T19:23:20.261Z,1000.85
2018-08-13T19:28:16.119Z,1000.92
2018-08-13T19:33:13.301Z,1000.92
2018-08-13T19:38:09.849Z,1000.96
2018-08-13T19:43:05.459Z,1000.90
2018-08-13T19:48:01.341Z,1000.99
2018-08-13T19:52:57.279Z,1001.00
2018-08-13T19:57:53.140Z,1001.07
2018-08-13T20:02:49.106Z,1001.07
2018-08-13T20:07:46.089Z,1001.00
2018-08-13T20:12:42.146Z,1001.09
2018-08-13T20:17:38.147Z,1001.02
2018-08-13T20:22:33.971Z,1001.14
2018-08-13T20:27:29.586Z,1001.07
2018-08-13T20:32:26.158Z,1001.17
2018-08-13T20:37:22.141Z,1001.21
2018-08-13T20:42:17.958Z,1001.26
2018-08-13T20:47:14.061Z,1001.26
2018-08-13T20:52:10.504Z,1001.27
2018-08-13T20:57:07.407Z,1001.31
2018-08-13T21:02:03.899Z,1001.33
2018-08-13T21:06:59.413Z,1001.47
2018-08-13T21:11:56.284Z,1001.54
2018-08-13T21:16:51.968Z,1001.50
2018-08-13T21:21:49.064Z,1001.59
2018-08-13T21:26:44.764Z,1001.63
2018-08-13T21:31:40.814Z,1001.61
2018-08-13T21:36:37.364Z,1001.68
2018-08-13T21:41:33.800Z,1001.69
2018-08-13T21:46:29.688Z,1001.83
2018-08-13T21:51:26.159Z,1001.84
2018-08-13T21:56:23.144Z,1001.93
2018-08-13T22:01:18.789Z,1001.98
2018-08-13T22:06:16.122Z,1001.83
2018-08-13T22:11:12.563Z,1001.93
2018-08-13T22:16:07.942Z,1001.90
2018-08-13T22:21:04.813Z,1001.88
2018-08-13T22:26:00.012Z,1001.93
2018-08-13T22:30:56.001Z,1001.98
2018-08-13T22:35:52.229Z,1001.99
2018-08-13T22:40:47.643Z,1002.11
2018-08-13T22:45:44.271Z,1002.03
2018-08-13T22:50:40.710Z,1002.17
2018-08-13T22:55:36.810Z,1002.19
2018-08-13T23:00:33.145Z,1002.21
2018-08-13T23:05:29.951Z,1002.26
2018-08-13T23:10:25.529Z,1002.27
2018-08-13T23:15:22.416Z,1002.26
2018-08-13T23:20:18.072Z,1002.31
2018-08-13T23:25:14.618Z,1002.35
2018-08-13T23:30:10.263Z,1002.29
2018-08-13T23:35:06.441Z,1002.34
2018-08-13T23:40:02.102Z,1002.34
2018-08-13T23:44:58.058Z,1002.43
2018-08-13T23:49:53.855Z,1002.36
2018-08-13T23:54:50.170Z,1002.42
2018-08-13T23:59:46.112Z,1002.48
